createdAt,value
2023-03-18T00:01:18.591Z,65.00
2023-03-18T00:04:21.530Z,63.10
2023-03-18T00:07:23.477Z,62.70
2023-03-18T00:10:25.453Z,62.60
2023-03-18T00:13:28.202Z,63.20
2023-03-18T00:16:30.627Z,63.80
2023-03-18T00:19:32.737Z,63.80
2023-03-18T00:22:35.750Z,65.00
2023-03-18T00:25:38.399Z,64.70
2023-03-18T00:28:40.254Z,64.80
2023-03-18T00:31:42.243Z,62.10
2023-03-18T00:34:44.242Z,61.40
2023-03-18T00:37:46.198Z,61.70
2023-03-18T00:40:49.266Z,62.70
2023-03-18T00:43:51.353Z,64.10
2023-03-18T00:46:53.265Z,61.10
2023-03-18T00:49:55.175Z,61.10
2023-03-18T00:52:57.153Z,61.50
2023-03-18T00:55:59.059Z,58.90
2023-03-18T00:59:01.412Z,59.20
2023-03-18T01:02:03.846Z,58.70
2023-03-18T01:05:06.447Z,57.90
2023-03-18T01:08:08.312Z,57.80
2023-03-18T01:11:11.471Z,57.10
2023-03-18T01:14:13.326Z,56.80
2023-03-18T01:17:17.802Z,56.20
2023-03-18T01:20:20.927Z,55.80
2023-03-18T01:23:26.888Z,56.00
2023-03-18T01:26:28.915Z,56.10
2023-03-18T01:29:33.555Z,56.00
2023-03-18T01:32:37.094Z,55.50
2023-03-18T01:35:39.109Z,56.00
2023-03-18T01:38:44.036Z,56.60
2023-03-18T01:41:48.863Z,56.60
2023-03-18T01:45:20.306Z,55.40
2023-03-18T01:48:26.856Z,55.60
2023-03-18T01:51:38.152Z,55.20
2023-03-18T01:54:45.814Z,55.20
2023-03-18T01:57:49.675Z,55.70
2023-03-18T02:00:58.375Z,55.60
2023-03-18T02:04:04.596Z,55.60
2023-03-18T02:07:06.650Z,55.40
2023-03-18T02:10:32.701Z,55.40
2023-03-18T02:13:43.148Z,55.40
2023-03-18T02:17:12.717Z,55.40
2023-03-18T02:20:41.140Z,55.80
2023-03-18T02:24:31.042Z,56.60
2023-03-18T02:27:37.480Z,58.10
2023-03-18T02:30:44.227Z,57.40
2023-03-18T02:33:48.320Z,57.10
2023-03-18T02:36:50.250Z,57.50
2023-03-18T02:39:52.473Z,57.30
2023-03-18T02:42:56.989Z,57.50
2023-03-18T02:46:11.279Z,57.90
2023-03-18T02:49:14.399Z,57.40
2023-03-18T02:52:16.424Z,57.70
2023-03-18T02:55:18.479Z,57.60
2023-03-18T02:58:20.746Z,59.40
2023-03-18T03:01:27.148Z,61.20
2023-03-18T03:04:31.737Z,62.70
2023-03-18T03:07:33.734Z,64.20
2023-03-18T03:10:37.534Z,64.90
2023-03-18T03:13:42.013Z,64.90
2023-03-18T03:16:45.962Z,65.50
2023-03-18T03:19:47.824Z,65.50
2023-03-18T03:22:49.825Z,66.00
2023-03-18T03:25:52.393Z,65.50
2023-03-18T03:28:55.603Z,65.80
2023-03-18T03:31:57.473Z,66.00
2023-03-18T03:34:59.336Z,65.80
2023-03-18T03:38:01.242Z,66.90
2023-03-18T03:41:03.223Z,68.10
2023-03-18T03:44:05.406Z,68.60
2023-03-18T03:47:07.633Z,69.70
2023-03-18T03:50:11.361Z,70.40
2023-03-18T03:53:13.386Z,70.10
2023-03-18T03:56:15.327Z,69.50
2023-03-18T03:59:17.808Z,69.00
2023-03-18T04:05:54.811Z,69.40
2023-03-18T04:09:02.025Z,69.20
2023-03-18T04:12:04.688Z,69.90
2023-03-18T04:15:08.458Z,70.30
2023-03-18T04:18:11.436Z,70.10
2023-03-18T04:21:13.629Z,70.10
2023-03-18T04:24:23.037Z,69.40
2023-03-18T04:27:26.561Z,70.10
2023-03-18T04:30:28.829Z,69.20
2023-03-18T04:33:44.283Z,69.00
2023-03-18T04:36:46.644Z,68.50
2023-03-18T04:39:49.943Z,68.80
2023-03-18T04:42:51.829Z,69.40
2023-03-18T04:45:59.056Z,69.50
2023-03-18T04:49:01.309Z,70.10
2023-03-18T04:52:03.737Z,69.70
2023-03-18T04:55:08.627Z,69.60
2023-03-18T04:58:13.439Z,69.80
2023-03-18T05:01:22.040Z,70.50
2023-03-18T05:04:24.323Z,70.80
2023-03-18T05:07:28.533Z,70.40
2023-03-18T05:10:37.083Z,70.40
2023-03-18T05:13:39.434Z,70.10
2023-03-18T05:16:42.762Z,71.00
2023-03-18T05:19:46.981Z,71.40
2023-03-18T05:22:53.893Z,71.60
2023-03-18T05:26:13.744Z,71.10
2023-03-18T05:29:19.146Z,71.90
2023-03-18T05:32:44.134Z,71.90
2023-03-18T05:35:47.084Z,72.00
2023-03-18T05:38:52.043Z,71.70
2023-03-18T05:41:54.290Z,72.50
2023-03-18T05:45:01.505Z,71.90
2023-03-18T05:48:04.048Z,71.80
2023-03-18T05:51:13.974Z,71.70
2023-03-18T05:54:16.454Z,71.40
2023-03-18T05:57:19.718Z,72.00
2023-03-18T06:00:23.090Z,73.30
2023-03-18T06:03:25.919Z,74.40
2023-03-18T06:06:27.921Z,75.00
2023-03-18T06:09:30.554Z,74.90
2023-03-18T06:12:32.694Z,74.50
2023-03-18T06:15:34.789Z,74.10
2023-03-18T06:18:37.521Z,73.30
2023-03-18T06:21:40.684Z,72.60
2023-03-18T06:24:44.526Z,72.70
2023-03-18T06:27:47.366Z,72.30
2023-03-18T06:30:51.251Z,71.70
2023-03-18T06:33:53.724Z,72.10
2023-03-18T06:36:57.502Z,70.20
2023-03-18T06:40:00.777Z,67.50
2023-03-18T06:43:03.219Z,66.40
2023-03-18T06:46:12.046Z,65.60
2023-03-18T06:49:18.280Z,63.90
2023-03-18T06:52:27.137Z,62.60
2023-03-18T06:55:34.606Z,62.60
2023-03-18T06:58:38.858Z,62.20
2023-03-18T07:01:44.327Z,59.50
2023-03-18T07:04:47.678Z,58.20
2023-03-18T07:07:50.084Z,56.50
2023-03-18T07:10:52.850Z,55.00
2023-03-18T07:13:55.450Z,54.90
2023-03-18T07:17:03.021Z,53.50
2023-03-18T07:20:05.505Z,51.90
2023-03-18T07:23:10.555Z,51.60
2023-03-18T07:26:13.964Z,50.00
2023-03-18T07:29:16.342Z,48.90
2023-03-18T07:32:18.579Z,46.30
2023-03-18T07:35:20.549Z,45.30
2023-03-18T07:38:22.543Z,44.60
2023-03-18T07:41:26.726Z,43.90
2023-03-18T07:44:28.719Z,42.80
2023-03-18T07:47:31.031Z,43.00
2023-03-18T07:50:33.555Z,41.80
2023-03-18T07:53:35.458Z,39.60
2023-03-18T07:56:39.794Z,37.70
2023-03-18T07:59:42.009Z,36.50
2023-03-18T08:02:44.223Z,36.10
2023-03-18T08:05:46.238Z,35.40
2023-03-18T08:08:48.083Z,34.00
2023-03-18T08:11:50.566Z,33.80
2023-03-18T08:14:55.596Z,32.30
2023-03-18T08:17:57.616Z,32.10
2023-03-18T08:20:59.720Z,31.80
2023-03-18T08:24:01.600Z,31.30
2023-03-18T08:27:04.306Z,31.70
2023-03-18T08:30:06.760Z,31.00
2023-03-18T08:33:08.997Z,30.50
2023-03-18T08:36:11.138Z,29.20
2023-03-18T08:39:14.592Z,29.50
2023-03-18T08:42:16.675Z,29.50
2023-03-18T08:45:21.299Z,29.60
2023-03-18T08:48:23.848Z,30.80
2023-03-18T08:51:26.692Z,29.10
2023-03-18T08:54:29.336Z,31.60
2023-03-18T08:57:31.559Z,33.10
2023-03-18T09:00:36.100Z,34.90
2023-03-18T09:03:38.312Z,35.50
2023-03-18T09:06:40.582Z,35.40
2023-03-18T09:09:44.208Z,34.40
2023-03-18T09:12:46.808Z,34.20
2023-03-18T09:15:49.052Z,34.10
2023-03-18T09:18:51.106Z,34.70
2023-03-18T09:21:53.656Z,32.60
2023-03-18T09:24:55.553Z,31.20
2023-03-18T09:27:57.493Z,30.60
2023-03-18T09:30:59.503Z,29.90
2023-03-18T09:34:01.514Z,30.10
2023-03-18T09:37:03.725Z,28.80
2023-03-18T09:40:08.684Z,28.70
2023-03-18T09:43:48.475Z,29.30
2023-03-18T09:47:05.196Z,29.20
2023-03-18T09:50:29.726Z,29.90
2023-03-18T09:53:43.976Z,29.30
2023-03-18T09:56:46.184Z,29.60
2023-03-18T10:00:12.455Z,30.20
2023-03-18T10:03:23.353Z,31.50
2023-03-18T10:06:26.829Z,31.40
2023-03-18T10:09:41.684Z,32.10
2023-03-18T10:13:10.342Z,32.30
2023-03-18T10:16:20.489Z,33.10
2023-03-18T10:19:22.565Z,30.60
2023-03-18T10:22:54.929Z,30.40
2023-03-18T10:26:04.848Z,32.80
2023-03-18T10:29:09.454Z,31.20
2023-03-18T10:32:49.559Z,30.00
2023-03-18T10:36:08.311Z,31.10
2023-03-18T10:39:17.869Z,31.60
2023-03-18T10:42:25.246Z,31.90
2023-03-18T10:45:34.564Z,31.30
2023-03-18T10:48:41.322Z,31.20
2023-03-18T10:51:59.638Z,31.20
2023-03-18T10:55:01.643Z,31.20
2023-03-18T10:58:18.507Z,32.50
2023-03-18T11:01:23.518Z,31.30
2023-03-18T11:04:28.741Z,32.30
2023-03-18T11:07:31.358Z,32.60
2023-03-18T11:10:53.892Z,33.50
2023-03-18T11:13:57.609Z,32.00
2023-03-18T11:17:00.816Z,31.90
2023-03-18T11:20:23.246Z,31.10
2023-03-18T11:23:36.888Z,31.60
2023-03-18T11:26:56.906Z,32.00
2023-03-18T11:30:02.951Z,33.20
2023-03-18T11:33:13.267Z,33.90
2023-03-18T11:36:22.507Z,32.50
2023-03-18T11:39:25.388Z,33.40
2023-03-18T11:42:27.317Z,33.60
2023-03-18T11:45:31.872Z,33.20
2023-03-18T11:48:36.081Z,34.30
2023-03-18T12:03:42.961Z,32.80
2023-03-18T12:07:22.487Z,33.10
2023-03-18T12:10:38.801Z,33.50
2023-03-18T12:13:43.896Z,35.00
2023-03-18T12:17:17.847Z,33.20
2023-03-18T12:20:35.545Z,33.10
2023-03-18T12:23:53.957Z,33.50
2023-03-18T12:27:01.784Z,33.40
2023-03-18T12:30:28.014Z,33.80
2023-03-18T12:33:51.921Z,33.40
2023-03-18T12:37:10.511Z,33.40
2023-03-18T12:40:47.554Z,33.90
2023-03-18T12:43:55.427Z,34.50
2023-03-18T12:47:23.008Z,34.40
2023-03-18T12:50:36.659Z,33.30
2023-03-18T12:53:45.072Z,34.60
2023-03-18T12:56:50.803Z,32.90
2023-03-18T13:00:00.946Z,31.90
2023-03-18T13:03:33.391Z,32.50
2023-03-18T13:06:47.516Z,32.30
2023-03-18T13:10:24.559Z,33.60
2023-03-18T13:13:28.642Z,34.30
2023-03-18T13:16:32.596Z,34.00
2023-03-18T13:19:36.157Z,33.20
2023-03-18T13:22:44.418Z,33.40
2023-03-18T13:26:03.423Z,34.10
2023-03-18T13:29:45.047Z,33.70
2023-03-18T13:33:21.938Z,33.00
2023-03-18T13:37:01.532Z,32.30
2023-03-18T13:40:21.361Z,33.10
2023-03-18T13:43:25.568Z,32.70
2023-03-18T13:46:31.523Z,33.60
2023-03-18T13:49:34.147Z,33.30
2023-03-18T13:52:43.769Z,32.40
2023-03-18T13:55:57.790Z,33.80
2023-03-18T13:59:04.745Z,32.00
2023-03-18T14:02:34.308Z,33.20
2023-03-18T14:05:39.609Z,34.30
2023-03-18T14:08:44.331Z,34.30
2023-03-18T14:11:47.478Z,34.10
2023-03-18T14:14:52.927Z,33.30
2023-03-18T14:17:56.988Z,34.70
2023-03-18T14:21:02.067Z,33.30
2023-03-18T14:24:12.104Z,34.20
2023-03-18T14:27:19.216Z,33.00
2023-03-18T14:30:30.468Z,33.40
2023-03-18T14:33:34.124Z,35.20
2023-03-18T14:37:05.226Z,33.80
2023-03-18T14:40:17.482Z,36.10
2023-03-18T14:43:37.281Z,35.30
2023-03-18T14:46:45.378Z,35.70
2023-03-18T14:49:55.032Z,34.60
2023-03-18T14:53:09.987Z,36.20
2023-03-18T14:56:19.614Z,36.40
2023-03-18T14:59:25.697Z,36.00
2023-03-18T15:05:43.224Z,35.60
2023-03-18T15:09:07.898Z,35.80
2023-03-18T15:12:24.923Z,35.40
2023-03-18T15:15:34.512Z,36.40
2023-03-18T15:18:38.301Z,36.20
2023-03-18T15:21:40.501Z,35.30
2023-03-18T15:24:43.404Z,35.70
2023-03-18T15:27:49.066Z,34.80
2023-03-18T15:30:58.307Z,34.40
2023-03-18T15:34:14.994Z,35.30
2023-03-18T15:37:41.726Z,36.80
2023-03-18T15:40:52.498Z,35.80
2023-03-18T15:43:54.488Z,36.50
2023-03-18T15:47:03.430Z,36.10
2023-03-18T15:50:11.520Z,38.20
2023-03-18T15:53:27.988Z,36.70
2023-03-18T15:56:34.561Z,35.20
2023-03-18T15:59:38.046Z,35.10
2023-03-18T16:02:40.417Z,35.30
2023-03-18T16:05:42.574Z,36.20
2023-03-18T16:08:44.824Z,35.10
2023-03-18T16:11:55.370Z,35.10
2023-03-18T16:14:57.475Z,37.20
2023-03-18T16:18:00.537Z,34.70
2023-03-18T16:21:04.100Z,35.40
2023-03-18T16:24:06.778Z,35.20
2023-03-18T16:27:26.534Z,34.90
2023-03-18T16:30:30.958Z,36.30
2023-03-18T16:33:34.407Z,36.20
2023-03-18T16:36:36.306Z,36.20
2023-03-18T16:39:38.399Z,36.50
2023-03-18T16:42:40.786Z,37.10
2023-03-18T16:45:45.970Z,37.00
2023-03-18T16:48:48.625Z,37.20
2023-03-18T16:51:51.234Z,37.40
2023-03-18T16:54:53.369Z,37.00
2023-03-18T16:58:01.978Z,37.10
2023-03-18T17:01:06.177Z,38.20
2023-03-18T17:04:34.658Z,38.00
2023-03-18T17:07:39.021Z,38.70
2023-03-18T17:10:41.587Z,39.20
2023-03-18T17:13:43.430Z,39.10
2023-03-18T17:16:45.380Z,39.00
2023-03-18T17:19:47.327Z,38.60
2023-03-18T17:22:49.313Z,40.10
2023-03-18T17:26:00.265Z,38.80
2023-03-18T17:29:02.186Z,40.90
2023-03-18T17:32:04.192Z,41.60
2023-03-18T17:35:12.944Z,43.80
2023-03-18T17:38:15.728Z,43.70
2023-03-18T17:41:21.095Z,47.40
2023-03-18T17:44:30.298Z,44.50
2023-03-18T17:47:32.778Z,44.20
2023-03-18T17:50:41.408Z,44.80
2023-03-18T17:53:55.916Z,47.10
2023-03-18T17:56:57.804Z,48.90
2023-03-18T18:00:00.271Z,47.80
2023-03-18T18:03:02.400Z,50.30
2023-03-18T18:06:04.684Z,49.30
2023-03-18T18:09:06.496Z,47.60
2023-03-18T18:12:16.427Z,48.00
2023-03-18T18:15:24.014Z,47.80
2023-03-18T18:18:27.989Z,48.60
2023-03-18T18:21:30.121Z,50.40
2023-03-18T18:24:32.341Z,51.40
2023-03-18T18:27:35.089Z,49.70
2023-03-18T18:30:37.257Z,50.60
2023-03-18T18:33:48.054Z,50.40
2023-03-18T18:36:50.535Z,50.80
2023-03-18T18:39:52.375Z,50.70
2023-03-18T18:42:54.203Z,50.90
2023-03-18T18:45:57.288Z,50.50
2023-03-18T18:48:59.260Z,50.60
2023-03-18T18:55:08.587Z,49.90
2023-03-18T18:58:18.644Z,50.70
2023-03-18T19:01:20.938Z,51.60
2023-03-18T19:04:23.323Z,51.90
2023-03-18T19:07:25.096Z,51.30
2023-03-18T19:10:26.998Z,51.30
2023-03-18T19:13:30.299Z,52.60
2023-03-18T19:16:34.534Z,50.60
2023-03-18T19:19:36.358Z,51.20
2023-03-18T19:22:38.166Z,51.30
2023-03-18T19:25:40.033Z,51.40
2023-03-18T19:28:55.098Z,52.20
2023-03-18T19:32:00.296Z,52.50
2023-03-18T19:35:02.506Z,52.60
2023-03-18T19:38:04.349Z,53.60
2023-03-18T19:41:06.266Z,54.10
2023-03-18T19:44:22.937Z,54.70
2023-03-18T19:47:26.894Z,54.10
2023-03-18T19:50:28.704Z,54.30
2023-03-18T19:53:30.690Z,54.40
2023-03-18T19:56:32.867Z,56.20
2023-03-18T19:59:39.323Z,54.90
2023-03-18T20:02:48.799Z,55.10
2023-03-18T20:05:51.149Z,56.40
2023-03-18T20:08:53.037Z,55.30
2023-03-18T20:12:03.003Z,55.10
2023-03-18T20:15:21.372Z,54.10
2023-03-18T20:18:30.219Z,54.00
2023-03-18T20:21:32.403Z,54.30
2023-03-18T20:24:34.406Z,55.80
2023-03-18T20:27:43.180Z,56.60
2023-03-18T20:33:53.117Z,56.10
2023-03-18T20:36:55.145Z,56.50
2023-03-18T20:39:57.428Z,54.60
2023-03-18T20:42:59.758Z,55.20
2023-03-18T20:46:02.058Z,55.60
2023-03-18T20:49:04.264Z,56.50
2023-03-18T20:52:06.647Z,56.20
2023-03-18T20:55:35.317Z,56.40
2023-03-18T20:58:37.693Z,56.20
2023-03-18T21:01:39.953Z,56.00
2023-03-18T21:04:41.907Z,56.20
2023-03-18T21:07:44.362Z,56.50
2023-03-18T21:10:46.224Z,56.80
2023-03-18T21:16:56.160Z,57.00
2023-03-18T21:20:11.174Z,56.50
2023-03-18T21:26:33.172Z,58.40
2023-03-18T21:29:41.037Z,57.20
2023-03-18T21:32:43.289Z,57.20
2023-03-18T21:35:45.190Z,57.70
2023-03-18T21:38:47.005Z,58.30
2023-03-18T21:41:48.830Z,58.60
2023-03-18T21:44:51.698Z,58.30
2023-03-18T21:47:53.759Z,59.60
2023-03-18T21:50:56.177Z,58.40
2023-03-18T21:53:58.395Z,58.80
2023-03-18T21:57:01.360Z,58.90
2023-03-18T22:00:04.388Z,59.10
2023-03-18T22:03:14.555Z,59.50
2023-03-18T22:06:17.304Z,59.20
2023-03-18T22:09:19.363Z,59.50
2023-03-18T22:12:32.009Z,59.60
2023-03-18T22:15:38.786Z,60.70
2023-03-18T22:18:44.308Z,60.60
2023-03-18T22:21:46.333Z,60.70
2023-03-18T22:24:48.937Z,61.60
2023-03-18T22:27:50.962Z,62.00
2023-03-18T22:30:56.446Z,60.80
2023-03-18T22:33:58.610Z,61.20
2023-03-18T22:37:00.617Z,61.80
2023-03-18T22:40:02.724Z,61.80
2023-03-18T22:43:13.951Z,61.70
2023-03-18T22:46:16.468Z,62.10
2023-03-18T22:49:18.674Z,62.20
2023-03-18T22:52:30.263Z,62.20
2023-03-18T22:55:38.635Z,62.50
2023-03-18T22:58:40.674Z,61.20
2023-03-18T23:01:42.751Z,61.90
2023-03-18T23:04:50.047Z,62.10
2023-03-18T23:07:53.043Z,61.00
2023-03-18T23:11:00.737Z,61.40
2023-03-18T23:14:04.394Z,62.00
2023-03-18T23:17:06.587Z,61.40
2023-03-18T23:20:09.261Z,60.90
2023-03-18T23:23:11.746Z,60.50
2023-03-18T23:26:13.686Z,60.50
2023-03-18T23:29:15.885Z,60.80
2023-03-18T23:32:19.158Z,60.60
2023-03-18T23:35:21.331Z,65.30
2023-03-18T23:38:23.206Z,65.90
2023-03-18T23:41:25.264Z,65.10
2023-03-18T23:44:27.749Z,65.60
2023-03-18T23:47:29.788Z,65.30
2023-03-18T23:50:31.857Z,64.70
2023-03-18T23:53:33.780Z,66.10
2023-03-18T23:56:36.300Z,63.10
2023-03-18T23:59:38.554Z,64.30
